JZA089 CYVR-CYPR
Flight info
| Callsign | JZA089 |
|---|---|
| Flight time | N/A |
| Altitude | 36000 |
| Route | YVR4/26L TREEL DCT UQQ DCT YZT DCT PR |
| Aircraft | CRJ9/M-SDFGIRWY/S |
Departure
| Time | N/A |
|---|---|
| Airport | Vancouver International Airport (CYVR) |
Arrival
| Time | 2026-05-03 21:11 |
|---|---|
| Airport | Prince Rupert Airport (CYPR) |
| Time | Latitude | Longitude | Altitude | Speed | Heading |
|---|---|---|---|---|---|
| 2026-05-03 20:15 | 50.51292 | -126.73368 | 36183 ft | 387 kts | 335° |
| 2026-05-03 20:15 | 50.55990 | -126.77503 | 36178 ft | 388 kts | 333° |
| 2026-05-03 20:16 | 50.60639 | -126.81807 | 36180 ft | 388 kts | 333° |
| 2026-05-03 20:16 | 50.65129 | -126.85972 | 36178 ft | 389 kts | 333° |
| 2026-05-03 20:17 | 50.69801 | -126.90319 | 36177 ft | 391 kts | 333° |
| 2026-05-03 20:17 | 50.74427 | -126.94629 | 36175 ft | 393 kts | 332° |
| 2026-05-03 20:18 | 50.79132 | -126.99023 | 36179 ft | 393 kts | 332° |
| 2026-05-03 20:18 | 50.83723 | -127.03321 | 36175 ft | 392 kts | 332° |
| 2026-05-03 20:19 | 50.88348 | -127.07665 | 36173 ft | 391 kts | 332° |
| 2026-05-03 20:19 | 50.93022 | -127.12063 | 36167 ft | 390 kts | 332° |
| 2026-05-03 20:20 | 50.97606 | -127.16381 | 36139 ft | 387 kts | 332° |
| 2026-05-03 20:20 | 51.02128 | -127.20668 | 36165 ft | 385 kts | 332° |
| 2026-05-03 20:21 | 51.06661 | -127.24962 | 36146 ft | 383 kts | 332° |
| 2026-05-03 20:21 | 51.11225 | -127.29285 | 36133 ft | 381 kts | 331° |
| 2026-05-03 20:22 | 51.15731 | -127.33577 | 36082 ft | 379 kts | 332° |
| 2026-05-03 20:22 | 51.20040 | -127.37689 | 36162 ft | 376 kts | 331° |
| 2026-05-03 20:23 | 51.24520 | -127.41976 | 36159 ft | 375 kts | 331° |
| 2026-05-03 20:23 | 51.28914 | -127.46181 | 36173 ft | 374 kts | 331° |
| 2026-05-03 20:24 | 51.33372 | -127.50468 | 36179 ft | 373 kts | 331° |
| 2026-05-03 20:24 | 51.37721 | -127.54664 | 36148 ft | 373 kts | 330° |
| 2026-05-03 20:25 | 51.42104 | -127.58946 | 36180 ft | 374 kts | 330° |
| 2026-05-03 20:25 | 51.46562 | -127.63249 | 36175 ft | 375 kts | 330° |
| 2026-05-03 20:26 | 51.50962 | -127.67535 | 36179 ft | 376 kts | 330° |
| 2026-05-03 20:26 | 51.55346 | -127.71772 | 36185 ft | 377 kts | 330° |
| 2026-05-03 20:27 | 51.59844 | -127.76156 | 36172 ft | 378 kts | 330° |
| 2026-05-03 20:27 | 51.64286 | -127.80505 | 36185 ft | 379 kts | 330° |
| 2026-05-03 20:28 | 51.68803 | -127.84917 | 36180 ft | 380 kts | 330° |
| 2026-05-03 20:28 | 51.73190 | -127.89216 | 36175 ft | 380 kts | 330° |
| 2026-05-03 20:29 | 51.77708 | -127.93660 | 36176 ft | 381 kts | 330° |
| 2026-05-03 20:29 | 51.82230 | -127.98117 | 36175 ft | 381 kts | 330° |
| 2026-05-03 20:30 | 51.86690 | -128.02520 | 36171 ft | 381 kts | 330° |
| 2026-05-03 20:30 | 51.91213 | -128.07002 | 36173 ft | 381 kts | 330° |
| 2026-05-03 20:31 | 51.95730 | -128.11482 | 36185 ft | 381 kts | 330° |
| 2026-05-03 20:31 | 52.00204 | -128.15928 | 36183 ft | 381 kts | 330° |
| 2026-05-03 20:32 | 52.04697 | -128.20406 | 36168 ft | 382 kts | 329° |
| 2026-05-03 20:32 | 52.09193 | -128.24889 | 36165 ft | 382 kts | 330° |
| 2026-05-03 20:33 | 52.13563 | -128.29256 | 36164 ft | 382 kts | 330° |
| 2026-05-03 20:33 | 52.15878 | -128.31062 | 36167 ft | 380 kts | 342° |
| 2026-05-03 20:33 | 52.18462 | -128.32034 | 36175 ft | 380 kts | 342° |
| 2026-05-03 20:34 | 52.23256 | -128.35556 | 36183 ft | 379 kts | 333° |
| 2026-05-03 20:34 | 52.27751 | -128.39854 | 36175 ft | 380 kts | 328° |
| 2026-05-03 20:35 | 52.32085 | -128.44483 | 36175 ft | 380 kts | 328° |
| 2026-05-03 20:35 | 52.36552 | -128.49131 | 36183 ft | 381 kts | 329° |
| 2026-05-03 20:36 | 52.40978 | -128.53700 | 36169 ft | 381 kts | 329° |
| 2026-05-03 20:36 | 52.45439 | -128.58319 | 36170 ft | 381 kts | 329° |
| 2026-05-03 20:37 | 52.49793 | -128.62833 | 36174 ft | 382 kts | 328° |
| 2026-05-03 20:37 | 52.54279 | -128.67499 | 36171 ft | 382 kts | 328° |
| 2026-05-03 20:38 | 52.58690 | -128.72096 | 36171 ft | 382 kts | 328° |
| 2026-05-03 20:38 | 52.63086 | -128.76692 | 36171 ft | 382 kts | 328° |
| 2026-05-03 20:39 | 52.67568 | -128.81385 | 36177 ft | 381 kts | 328° |
| 2026-05-03 20:39 | 52.71942 | -128.85993 | 36245 ft | 372 kts | 328° |
| 2026-05-03 20:40 | 52.76235 | -128.90412 | 35863 ft | 356 kts | 328° |
| 2026-05-03 20:40 | 52.78327 | -128.92564 | 35487 ft | 354 kts | 328° |
| 2026-05-03 20:40 | 52.80289 | -128.94617 | 34911 ft | 360 kts | 328° |
| 2026-05-03 20:40 | 52.82415 | -128.96855 | 34407 ft | 364 kts | 327° |
| 2026-05-03 20:41 | 52.84561 | -128.99121 | 34051 ft | 368 kts | 327° |
| 2026-05-03 20:41 | 52.86724 | -129.01413 | 33743 ft | 370 kts | 327° |
| 2026-05-03 20:41 | 52.88907 | -129.03724 | 33349 ft | 375 kts | 327° |
| 2026-05-03 20:41 | 52.91030 | -129.05989 | 33185 ft | 374 kts | 327° |
| 2026-05-03 20:42 | 52.93193 | -129.08293 | 32967 ft | 374 kts | 327° |
| 2026-05-03 20:42 | 52.95355 | -129.10625 | 32769 ft | 374 kts | 327° |
| 2026-05-03 20:42 | 52.97456 | -129.12898 | 32522 ft | 376 kts | 327° |
| 2026-05-03 20:42 | 52.99657 | -129.15261 | 32213 ft | 379 kts | 327° |
| 2026-05-03 20:43 | 53.01820 | -129.17571 | 31931 ft | 381 kts | 327° |
| 2026-05-03 20:43 | 53.04061 | -129.19960 | 31660 ft | 383 kts | 327° |
| 2026-05-03 20:43 | 53.06312 | -129.22365 | 31407 ft | 385 kts | 327° |
| 2026-05-03 20:43 | 53.08526 | -129.24738 | 31238 ft | 385 kts | 327° |
| 2026-05-03 20:44 | 53.10776 | -129.27152 | 31047 ft | 384 kts | 327° |
| 2026-05-03 20:44 | 53.12842 | -129.29374 | 30860 ft | 384 kts | 327° |
| 2026-05-03 20:44 | 53.15089 | -129.31792 | 30644 ft | 385 kts | 327° |
| 2026-05-03 20:44 | 53.17352 | -129.34182 | 30425 ft | 385 kts | 327° |
| 2026-05-03 20:45 | 53.19606 | -129.36593 | 30228 ft | 385 kts | 326° |
| 2026-05-03 20:45 | 53.21790 | -129.38946 | 29973 ft | 384 kts | 326° |
| 2026-05-03 20:45 | 53.24030 | -129.41360 | 29726 ft | 383 kts | 326° |
| 2026-05-03 20:45 | 53.26263 | -129.43781 | 29465 ft | 382 kts | 326° |
| 2026-05-03 20:46 | 53.28465 | -129.46166 | 29193 ft | 381 kts | 326° |
| 2026-05-03 20:46 | 53.30610 | -129.48492 | 28902 ft | 379 kts | 326° |
| 2026-05-03 20:46 | 53.32761 | -129.50824 | 28577 ft | 377 kts | 326° |
| 2026-05-03 20:46 | 53.34960 | -129.53217 | 28205 ft | 377 kts | 326° |
| 2026-05-03 20:47 | 53.37163 | -129.55691 | 27985 ft | 375 kts | 325° |
| 2026-05-03 20:47 | 53.39317 | -129.58103 | 27610 ft | 374 kts | 326° |
| 2026-05-03 20:47 | 53.41481 | -129.60389 | 27266 ft | 372 kts | 326° |
| 2026-05-03 20:47 | 53.43581 | -129.62668 | 26940 ft | 372 kts | 326° |
| 2026-05-03 20:48 | 53.45623 | -129.64928 | 26638 ft | 370 kts | 326° |
| 2026-05-03 20:48 | 53.47781 | -129.67277 | 26148 ft | 371 kts | 326° |
| 2026-05-03 20:48 | 53.49932 | -129.69628 | 25850 ft | 368 kts | 326° |
| 2026-05-03 20:48 | 53.52079 | -129.71957 | 25463 ft | 366 kts | 326° |
| 2026-05-03 20:49 | 53.54160 | -129.74241 | 25131 ft | 364 kts | 325° |
| 2026-05-03 20:49 | 53.56268 | -129.76578 | 24848 ft | 363 kts | 325° |
| 2026-05-03 20:49 | 53.58380 | -129.78918 | 24380 ft | 364 kts | 326° |
| 2026-05-03 20:49 | 53.60495 | -129.81241 | 24044 ft | 362 kts | 326° |
| 2026-05-03 20:50 | 53.62501 | -129.83465 | 23792 ft | 360 kts | 324° |
| 2026-05-03 20:50 | 53.64513 | -129.85752 | 23503 ft | 357 kts | 324° |
| 2026-05-03 20:50 | 53.66579 | -129.88067 | 23085 ft | 357 kts | 325° |
| 2026-05-03 20:50 | 53.68646 | -129.90356 | 22635 ft | 357 kts | 325° |
| 2026-05-03 20:51 | 53.70723 | -129.92655 | 22193 ft | 357 kts | 326° |
| 2026-05-03 20:51 | 53.72795 | -129.94954 | 21724 ft | 357 kts | 325° |
| 2026-05-03 20:51 | 53.74811 | -129.97189 | 21257 ft | 356 kts | 325° |
| 2026-05-03 20:51 | 53.76756 | -129.99358 | 20867 ft | 353 kts | 325° |
| 2026-05-03 20:52 | 53.78800 | -130.01637 | 20409 ft | 352 kts | 325° |
| 2026-05-03 20:52 | 53.80835 | -130.03920 | 19965 ft | 349 kts | 325° |
| 2026-05-03 20:52 | 53.82843 | -130.06192 | 19520 ft | 346 kts | 325° |
| 2026-05-03 20:52 | 53.84784 | -130.08359 | 19076 ft | 342 kts | 325° |
| 2026-05-03 20:53 | 53.86762 | -130.10566 | 18633 ft | 338 kts | 325° |
| 2026-05-03 20:53 | 53.88717 | -130.12739 | 18128 ft | 335 kts | 325° |
| 2026-05-03 20:53 | 53.90650 | -130.14912 | 17636 ft | 332 kts | 325° |
| 2026-05-03 20:53 | 53.92486 | -130.16989 | 17162 ft | 330 kts | 325° |
| 2026-05-03 20:54 | 53.93749 | -130.18418 | 16840 ft | 329 kts | 325° |
| 2026-05-03 20:54 | 53.97475 | -130.22629 | 15900 ft | 325 kts | 326° |
| 2026-05-03 20:54 | 53.99353 | -130.24750 | 15435 ft | 323 kts | 326° |
| 2026-05-03 20:55 | 54.01225 | -130.26861 | 14983 ft | 322 kts | 326° |
| 2026-05-03 20:55 | 54.03081 | -130.28963 | 14545 ft | 320 kts | 326° |
| 2026-05-03 20:55 | 54.04913 | -130.31030 | 14306 ft | 312 kts | 325° |
| 2026-05-03 20:55 | 54.06667 | -130.33009 | 14198 ft | 310 kts | 325° |
| 2026-05-03 20:56 | 54.08382 | -130.34956 | 14146 ft | 308 kts | 325° |
| 2026-05-03 20:56 | 54.10154 | -130.36978 | 14114 ft | 305 kts | 325° |
| 2026-05-03 20:56 | 54.11910 | -130.38983 | 14079 ft | 303 kts | 325° |
| 2026-05-03 20:56 | 54.13672 | -130.40994 | 13853 ft | 307 kts | 325° |
| 2026-05-03 20:57 | 54.15441 | -130.43012 | 13463 ft | 315 kts | 325° |
| 2026-05-03 20:57 | 54.17256 | -130.45084 | 13090 ft | 318 kts | 325° |
| 2026-05-03 20:57 | 54.19079 | -130.47163 | 12705 ft | 311 kts | 325° |
| 2026-05-03 20:57 | 54.20838 | -130.49169 | 12313 ft | 298 kts | 324° |
| 2026-05-03 20:58 | 54.22530 | -130.51102 | 11921 ft | 288 kts | 324° |
| 2026-05-03 20:58 | 54.24098 | -130.52898 | 11552 ft | 280 kts | 324° |
| 2026-05-03 20:58 | 54.25655 | -130.54682 | 11158 ft | 273 kts | 324° |
| 2026-05-03 20:58 | 54.27231 | -130.56492 | 10641 ft | 272 kts | 324° |
| 2026-05-03 20:59 | 54.28791 | -130.58286 | 10136 ft | 269 kts | 324° |
| 2026-05-03 20:59 | 54.30339 | -130.60061 | 9583 ft | 266 kts | 324° |
| 2026-05-03 20:59 | 54.31858 | -130.61842 | 9036 ft | 263 kts | 320° |
| 2026-05-03 20:59 | 54.32889 | -130.64324 | 8482 ft | 258 kts | 286° |
| 2026-05-03 21:00 | 54.32836 | -130.67348 | 7973 ft | 259 kts | 251° |
| 2026-05-03 21:00 | 54.32344 | -130.69177 | 7648 ft | 258 kts | 245° |
| 2026-05-03 21:00 | 54.31238 | -130.72687 | 7019 ft | 256 kts | 243° |
| 2026-05-03 21:00 | 54.30356 | -130.75323 | 6502 ft | 254 kts | 243° |
| 2026-05-03 21:01 | 54.29858 | -130.78095 | 5935 ft | 246 kts | 274° |
| 2026-05-03 21:01 | 54.30415 | -130.80757 | 5405 ft | 239 kts | 311° |
| 2026-05-03 21:01 | 54.31750 | -130.82353 | 4880 ft | 236 kts | 343° |
| 2026-05-03 21:01 | 54.33355 | -130.82303 | 4483 ft | 232 kts | 18° |
| 2026-05-03 21:02 | 54.34619 | -130.80686 | 4141 ft | 228 kts | 48° |
| 2026-05-03 21:02 | 54.35621 | -130.78597 | 3784 ft | 227 kts | 48° |
| 2026-05-03 21:02 | 54.36593 | -130.76600 | 3585 ft | 222 kts | 48° |
| 2026-05-03 21:02 | 54.37561 | -130.74589 | 3476 ft | 218 kts | 48° |
| 2026-05-03 21:03 | 54.38545 | -130.72506 | 3392 ft | 230 kts | 50° |
| 2026-05-03 21:03 | 54.39531 | -130.70399 | 3406 ft | 221 kts | 49° |
| 2026-05-03 21:03 | 54.40442 | -130.68478 | 3404 ft | 213 kts | 49° |
| 2026-05-03 21:03 | 54.41312 | -130.66451 | 3397 ft | 210 kts | 56° |
| 2026-05-03 21:04 | 54.42078 | -130.64331 | 3412 ft | 207 kts | 57° |
| 2026-05-03 21:04 | 54.42806 | -130.62205 | 3408 ft | 207 kts | 58° |
| 2026-05-03 21:04 | 54.43529 | -130.60060 | 3411 ft | 209 kts | 60° |
| 2026-05-03 21:04 | 54.43879 | -130.57630 | 3325 ft | 216 kts | 95° |
| 2026-05-03 21:05 | 54.43337 | -130.55231 | 3127 ft | 219 kts | 131° |
| 2026-05-03 21:05 | 54.42172 | -130.53921 | 2953 ft | 190 kts | 165° |
| 2026-05-03 21:05 | 54.40925 | -130.53447 | 2591 ft | 176 kts | 170° |
| 2026-05-03 21:05 | 54.39784 | -130.53043 | 2306 ft | 159 kts | 169° |
| 2026-05-03 21:06 | 54.38727 | -130.52625 | 2063 ft | 155 kts | 168° |
| 2026-05-03 21:06 | 54.37681 | -130.52191 | 1783 ft | 154 kts | 167° |
| 2026-05-03 21:06 | 54.36664 | -130.51748 | 1534 ft | 154 kts | 166° |
| 2026-05-03 21:06 | 54.35691 | -130.51290 | 1361 ft | 153 kts | 165° |
| 2026-05-03 21:07 | 54.34654 | -130.50862 | 1234 ft | 153 kts | 171° |
| 2026-05-03 21:07 | 54.33597 | -130.50672 | 1197 ft | 152 kts | 176° |
| 2026-05-03 21:07 | 54.32580 | -130.50519 | 1194 ft | 144 kts | 174° |
| 2026-05-03 21:07 | 54.31568 | -130.50268 | 1162 ft | 148 kts | 169° |
| 2026-05-03 21:08 | 54.30586 | -130.49884 | 1237 ft | 142 kts | 167° |
| 2026-05-03 21:08 | 54.29618 | -130.49460 | 1330 ft | 145 kts | 166° |
| 2026-05-03 21:08 | 54.28646 | -130.49023 | 1542 ft | 143 kts | 162° |
| 2026-05-03 21:08 | 54.27708 | -130.48508 | 1503 ft | 150 kts | 159° |
| 2026-05-03 21:09 | 54.26739 | -130.47725 | 1563 ft | 157 kts | 147° |
| 2026-05-03 21:09 | 54.25812 | -130.46734 | 1681 ft | 152 kts | 146° |
| 2026-05-03 21:09 | 54.24941 | -130.45732 | 1496 ft | 158 kts | 143° |
| 2026-05-03 21:09 | 54.24170 | -130.44427 | 1403 ft | 156 kts | 115° |
| 2026-05-03 21:10 | 54.24043 | -130.42698 | 1257 ft | 147 kts | 67° |
| 2026-05-03 21:10 | 54.24705 | -130.41508 | 1094 ft | 141 kts | 13° |
| 2026-05-03 21:10 | 54.25609 | -130.41705 | 772 ft | 131 kts | 330° |
| 2026-05-03 21:10 | 54.26402 | -130.42411 | 485 ft | 130 kts | 330° |
| 2026-05-03 21:11 | 54.27194 | -130.43158 | 361 ft | 131 kts | 328° |
| 2026-05-03 21:11 | 54.27963 | -130.43883 | 110 ft | 119 kts | 330° |
| 2026-05-03 21:11 | 54.28580 | -130.44450 | 75 ft | 83 kts | 332° |
| 2026-05-03 21:11 | 54.28924 | -130.44769 | 70 ft | 20 kts | 332° |
| 2026-05-03 21:12 | 54.29019 | -130.44745 | 68 ft | 11 kts | 58° |
| 2026-05-03 21:12 | 54.29047 | -130.44655 | 72 ft | 8 kts | 62° |
| 2026-05-03 21:12 | 54.29080 | -130.44598 | 73 ft | 5 kts | 9° |
| 2026-05-03 21:12 | 54.29123 | -130.44615 | 70 ft | 12 kts | 333° |
| 2026-05-03 21:13 | 54.29194 | -130.44680 | 73 ft | 12 kts | 332° |
| 2026-05-03 21:13 | 54.29243 | -130.44673 | 71 ft | 4 kts | 45° |
| 2026-05-03 21:13 | 54.29248 | -130.44643 | 83 ft | 0 kts | 92° |